Time;durP1;ratioP1;P1;durP2;ratioP2;P2;SDS_P1;SDS_P2;PMS_P1;PMS_P2;Temp;Humidity;BMP_temperature;BMP_pressure;BME280_temperature;BME280_humidity;BME280_pressure;Samples;Min_cycle;Max_cycle;Signal;HPM_P1;HPM_P2
2023/01/18 00:00:09;;;;;;;2.80;1.60;;;3.50;99.90;;;;;;5070396;28;20209;-82
2023/01/18 00:02:36;;;;;;;2.97;1.50;;;3.40;99.90;;;;;;5066293;28;20229;-81
2023/01/18 00:05:03;;;;;;;4.03;1.63;;;3.40;99.90;;;;;;5069805;28;20307;-82
2023/01/18 00:07:31;;;;;;;2.63;1.40;;;3.30;99.90;;;;;;5070406;28;20317;-82
2023/01/18 00:09:58;;;;;;;3.67;1.87;;;3.30;99.90;;;;;;5071123;28;20193;-83
2023/01/18 00:12:25;;;;;;;2.63;1.70;;;3.30;99.90;;;;;;5072649;28;20263;-82
2023/01/18 00:14:51;;;;;;;4.63;1.57;;;3.30;99.90;;;;;;5069660;28;20637;-80
2023/01/18 00:17:18;;;;;;;4.63;2.33;;;3.40;99.90;;;;;;5070044;28;20209;-82
2023/01/18 00:19:45;;;;;;;3.70;1.60;;;3.40;99.90;;;;;;5070470;28;20292;-81
2023/01/18 00:22:12;;;;;;;2.57;1.90;;;3.40;99.90;;;;;;5070690;28;20193;-83
2023/01/18 00:24:40;;;;;;;4.80;2.37;;;3.40;99.90;;;;;;5070610;28;20207;-82
2023/01/18 00:27:09;;;;;;;4.73;1.90;;;3.40;99.90;;;;;;5071088;28;20485;-82
2023/01/18 00:29:36;;;;;;;5.63;2.00;;;3.40;99.90;;;;;;5070561;28;20205;-82
2023/01/18 00:32:03;;;;;;;4.37;2.07;;;3.40;99.90;;;;;;5070982;28;20297;-81
2023/01/18 00:34:30;;;;;;;4.60;2.33;;;3.30;99.90;;;;;;5069276;28;20219;-79
2023/01/18 00:36:57;;;;;;;5.10;2.10;;;3.30;99.90;;;;;;5070042;28;20709;-81
2023/01/18 00:39:24;;;;;;;3.37;1.87;;;3.40;99.90;;;;;;5069863;28;20296;-81
2023/01/18 00:44:36;;;;;;;5.17;2.07;;;3.40;99.90;;;;;;5084340;28;20231;-80
2023/01/18 00:47:03;;;;;;;4.57;1.70;;;3.40;99.90;;;;;;5089791;28;20498;-81
2023/01/18 00:49:30;;;;;;;7.53;2.47;;;3.40;99.90;;;;;;5089622;28;20615;-80
2023/01/18 00:51:57;;;;;;;5.57;2.20;;;3.40;99.90;;;;;;5090142;28;20283;-81
2023/01/18 00:54:24;;;;;;;4.30;2.27;;;3.40;99.90;;;;;;5069405;28;20870;-81
2023/01/18 00:56:52;;;;;;;6.40;2.60;;;3.40;99.90;;;;;;5067419;28;20197;-81
2023/01/18 00:59:19;;;;;;;4.00;2.10;;;3.50;99.90;;;;;;5069154;28;20890;-77
2023/01/18 01:01:46;;;;;;;3.70;2.30;;;3.40;99.90;;;;;;5067903;28;20198;-81
2023/01/18 01:06:58;;;;;;;4.23;2.43;;;3.40;99.90;;;;;;5066710;28;20231;-78
2023/01/18 01:09:26;;;;;;;6.57;3.07;;;3.40;99.90;;;;;;5066533;28;20300;-80
2023/01/18 01:26:06;;;;;;;4.07;2.77;;;3.10;99.90;;;;;;5066298;28;20248;-80
2023/01/18 01:28:35;;;;;;;6.53;3.20;;;3.00;99.90;;;;;;5080888;28;20207;-79
2023/01/18 01:31:03;;;;;;;5.63;3.17;;;3.10;99.90;;;;;;5084817;28;20201;-78
2023/01/18 01:33:31;;;;;;;5.43;3.23;;;3.10;99.90;;;;;;5084611;28;20200;-80
2023/01/18 01:35:59;;;;;;;5.27;3.37;;;3.10;99.90;;;;;;5082650;28;20197;-80
2023/01/18 01:38:27;;;;;;;6.03;3.30;;;3.00;99.90;;;;;;5064575;28;20209;-79
2023/01/18 01:40:59;;;;;;;7.70;3.47;;;3.00;99.90;;;;;;5064309;28;20204;-78
2023/01/18 01:43:43;;;;;;;4.80;2.97;;;3.10;99.90;;;;;;5063739;28;20201;-79
2023/01/18 01:46:20;;;;;;;5.60;3.30;;;3.10;99.90;;;;;;5080320;28;20299;-77
2023/01/18 01:48:48;;;;;;;5.10;2.97;;;3.10;99.90;;;;;;5083963;28;20198;-77
2023/01/18 01:51:18;;;;;;;5.20;3.13;;;3.10;99.90;;;;;;5084050;28;20328;-77
2023/01/18 01:53:46;;;;;;;6.13;3.40;;;3.00;99.90;;;;;;5082469;28;20215;-77
2023/01/18 01:56:13;;;;;;;5.83;3.40;;;3.00;99.90;;;;;;5064622;28;20201;-76
2023/01/18 01:58:43;;;;;;;8.87;3.50;;;3.10;99.90;;;;;;5062799;28;20208;-77
2023/01/18 02:01:10;;;;;;;6.13;3.43;;;3.10;99.90;;;;;;5063433;28;20199;-77
2023/01/18 02:03:41;;;;;;;6.50;2.73;;;3.10;99.90;;;;;;5063133;28;20228;-78
2023/01/18 02:06:15;;;;;;;6.63;3.53;;;3.10;99.90;;;;;;5062592;28;20272;-79
2023/01/18 02:08:46;;;;;;;6.97;3.30;;;3.10;99.90;;;;;;5063097;28;20655;-79
2023/01/18 02:11:12;;;;;;;5.80;3.17;;;3.10;99.90;;;;;;5063668;28;20293;-78
2023/01/18 02:13:41;;;;;;;4.82;3.05;;;3.10;99.90;;;;;;5061638;28;20878;-77
2023/01/18 02:16:17;;;;;;;5.50;3.27;;;3.10;99.90;;;;;;5063612;28;20674;-79
2023/01/18 02:18:51;;;;;;;6.10;2.70;;;3.20;99.90;;;;;;5063909;28;20222;-80
2023/01/18 02:21:20;;;;;;;6.63;3.33;;;3.10;99.90;;;;;;5062450;28;20223;-78
2023/01/18 02:24:25;;;;;;;5.63;2.73;;;3.20;99.90;;;;;;5065906;28;20612;-81
2023/01/18 02:27:08;;;;;;;4.93;2.90;;;3.10;99.90;;;;;;5065525;28;20333;-78
2023/01/18 02:30:19;;;;;;;5.60;3.00;;;3.10;99.90;;;;;;5061742;28;20278;-78
2023/01/18 02:32:59;;;;;;;7.00;3.27;;;3.30;99.90;;;;;;5033102;28;20319;-78
2023/01/18 02:35:34;;;;;;;6.70;2.93;;;3.40;99.90;;;;;;5062885;28;20883;-79
2023/01/18 02:38:07;;;;;;;7.60;2.67;;;3.50;99.90;;;;;;5063074;28;20210;-78
2023/01/18 02:40:44;;;;;;;5.13;2.90;;;3.60;99.90;;;;;;5062581;28;20181;-80
2023/01/18 02:48:48;;;;;;;7.33;2.70;;;3.70;99.90;;;;;;5062166;28;20212;-78
2023/01/18 02:51:15;;;;;;;5.03;2.80;;;3.70;99.90;;;;;;5063023;28;20212;-77
2023/01/18 02:53:44;;;;;;;7.17;2.77;;;3.70;99.90;;;;;;5062946;28;20529;-77
2023/01/18 02:56:16;;;;;;;5.17;2.83;;;3.70;99.90;;;;;;5061940;28;20198;-77
2023/01/18 02:58:46;;;;;;;4.17;2.53;;;3.70;99.90;;;;;;5062483;28;20220;-78
2023/01/18 03:01:25;;;;;;;7.47;2.97;;;3.70;99.90;;;;;;5079167;28;20311;-79
2023/01/18 03:03:56;;;;;;;4.47;2.77;;;3.60;99.90;;;;;;5082438;28;20595;-81
2023/01/18 03:06:28;;;;;;;3.97;2.90;;;3.70;99.90;;;;;;5077776;28;20232;-79
2023/01/18 03:08:57;;;;;;;5.47;2.40;;;3.70;99.90;;;;;;5062460;28;20193;-78
2023/01/18 03:11:34;;;;;;;4.67;2.47;;;3.70;99.90;;;;;;5067267;28;20207;-83
2023/01/18 03:14:12;;;;;;;3.73;2.33;;;3.80;99.90;;;;;;5064769;28;20242;-81
2023/01/18 03:16:56;;;;;;;4.37;2.10;;;3.80;99.90;;;;;;5063785;28;20645;-82
2023/01/18 03:22:18;;;;;;;3.53;2.23;;;3.80;99.90;;;;;;5066800;28;20239;-82
2023/01/18 03:24:45;;;;;;;5.13;3.33;;;3.70;99.90;;;;;;5066951;28;20295;-82
2023/01/18 03:35:30;;;;;;;3.83;1.60;;;3.80;99.90;;;;;;5066333;28;20200;-80
2023/01/18 03:37:59;;;;;;;2.93;1.80;;;3.80;99.90;;;;;;5064720;28;20193;-80
2023/01/18 03:40:29;;;;;;;4.67;2.00;;;3.80;99.90;;;;;;5065243;28;20588;-80
2023/01/18 03:43:03;;;;;;;3.13;1.80;;;3.80;99.90;;;;;;5066074;28;20274;-79
2023/01/18 03:45:33;;;;;;;4.33;2.03;;;3.80;99.90;;;;;;5065090;28;20205;-81
2023/01/18 03:48:02;;;;;;;3.60;2.13;;;3.80;99.90;;;;;;5066347;28;20285;-80
2023/01/18 03:50:37;;;;;;;5.83;2.30;;;3.80;99.90;;;;;;5067675;28;20197;-81
2023/01/18 03:53:11;;;;;;;4.67;2.10;;;3.80;99.90;;;;;;5064722;28;20512;-82
2023/01/18 03:55:42;;;;;;;4.10;2.70;;;3.80;99.90;;;;;;5064781;28;20217;-78
2023/01/18 03:58:11;;;;;;;2.90;1.87;;;3.80;99.90;;;;;;5064225;28;20687;-83
2023/01/18 04:00:39;;;;;;;2.13;1.60;;;3.80;99.90;;;;;;5065325;28;20219;-76
2023/01/18 04:03:08;;;;;;;5.13;1.97;;;3.70;99.90;;;;;;5065710;28;20201;-77
2023/01/18 04:05:36;;;;;;;3.23;1.73;;;3.60;99.90;;;;;;5064384;28;20229;-78
2023/01/18 04:08:03;;;;;;;5.03;1.90;;;3.50;99.90;;;;;;5065398;28;20201;-78
2023/01/18 04:10:30;;;;;;;4.47;1.57;;;3.60;99.90;;;;;;5065608;28;20292;-77
2023/01/18 04:12:57;;;;;;;3.47;1.83;;;3.70;99.90;;;;;;5064605;28;20288;-77
2023/01/18 04:15:24;;;;;;;2.77;1.80;;;3.80;99.90;;;;;;5065278;28;20190;-78
2023/01/18 04:17:54;;;;;;;4.63;2.03;;;3.70;99.90;;;;;;5064517;28;20213;-77
2023/01/18 04:20:22;;;;;;;6.30;1.83;;;3.70;99.90;;;;;;5064356;28;20219;-77
2023/01/18 04:22:52;;;;;;;2.40;1.63;;;3.60;99.90;;;;;;5065023;28;20201;-78
2023/01/18 04:25:19;;;;;;;4.27;2.00;;;3.60;99.90;;;;;;5064604;28;20234;-77
2023/01/18 04:27:46;;;;;;;3.20;1.87;;;3.60;99.90;;;;;;5064283;28;20317;-77
2023/01/18 04:30:13;;;;;;;4.77;2.30;;;3.60;99.90;;;;;;5064432;28;20319;-78
2023/01/18 04:32:41;;;;;;;4.37;2.10;;;3.60;99.90;;;;;;5065033;28;20212;-77
2023/01/18 04:35:09;;;;;;;4.43;2.03;;;3.60;99.90;;;;;;5064358;28;20233;-78
2023/01/18 04:37:37;;;;;;;4.60;2.07;;;3.50;99.90;;;;;;5064443;28;20205;-79
2023/01/18 04:40:05;;;;;;;3.87;1.83;;;3.50;99.90;;;;;;5066566;28;20837;-82
2023/01/18 04:42:32;;;;;;;5.70;2.10;;;3.50;99.90;;;;;;5069082;28;20209;-81
2023/01/18 04:45:00;;;;;;;3.27;1.90;;;3.50;99.90;;;;;;5069339;28;20225;-82
2023/01/18 04:47:28;;;;;;;5.67;2.37;;;3.50;99.90;;;;;;5068932;28;20225;-82
2023/01/18 04:49:56;;;;;;;5.20;2.03;;;3.50;99.90;;;;;;5069565;28;20280;-82
2023/01/18 04:52:24;;;;;;;3.57;1.70;;;3.50;99.90;;;;;;5065561;28;20320;-79
2023/01/18 04:54:52;;;;;;;5.40;2.23;;;3.70;99.90;;;;;;5063924;28;20215;-80
2023/01/18 04:57:19;;;;;;;2.97;1.70;;;3.80;99.90;;;;;;5065865;28;20300;-77
2023/01/18 04:59:46;;;;;;;3.90;1.80;;;3.90;99.90;;;;;;5065431;28;20630;-77
2023/01/18 05:02:14;;;;;;;5.17;1.63;;;3.90;99.90;;;;;;5064467;28;20946;-77
2023/01/18 05:04:42;;;;;;;3.83;1.90;;;3.90;99.90;;;;;;5064366;28;20209;-78
2023/01/18 05:07:09;;;;;;;5.17;2.20;;;4.00;99.90;;;;;;5065246;28;20241;-79
2023/01/18 05:09:36;;;;;;;4.77;1.90;;;4.00;99.90;;;;;;5064719;28;20200;-77
2023/01/18 05:12:05;;;;;;;2.97;1.53;;;4.10;99.90;;;;;;5082304;28;20204;-78
2023/01/18 05:14:32;;;;;;;3.00;1.50;;;4.00;99.90;;;;;;5084852;28;20196;-76
2023/01/18 05:16:59;;;;;;;7.77;2.60;;;4.00;99.90;;;;;;5083630;28;20209;-77
2023/01/18 05:19:28;;;;;;;4.33;1.60;;;4.00;99.90;;;;;;5084693;28;20220;-78
2023/01/18 05:21:56;;;;;;;3.77;1.60;;;4.00;99.90;;;;;;5085263;28;20276;-77
2023/01/18 05:24:23;;;;;;;3.40;1.70;;;4.10;99.90;;;;;;5083841;28;20212;-77
2023/01/18 05:26:49;;;;;;;4.90;2.00;;;4.20;99.90;;;;;;5083011;28;20217;-78
2023/01/18 05:29:18;;;;;;;3.90;1.80;;;4.20;99.90;;;;;;5085284;28;20881;-78
2023/01/18 05:31:45;;;;;;;4.87;1.67;;;4.20;99.90;;;;;;5084280;28;20212;-76
2023/01/18 05:34:11;;;;;;;4.53;2.07;;;4.10;99.90;;;;;;5084549;28;20227;-77
2023/01/18 05:36:38;;;;;;;3.63;1.63;;;4.00;99.90;;;;;;5070002;28;20209;-78
2023/01/18 05:39:05;;;;;;;3.10;1.60;;;4.00;99.90;;;;;;5062917;28;20298;-78
2023/01/18 05:41:33;;;;;;;2.30;1.60;;;4.00;99.90;;;;;;5064566;28;20201;-82
2023/01/18 05:43:59;;;;;;;5.70;1.63;;;4.00;99.90;;;;;;5068055;28;20236;-82
2023/01/18 05:46:28;;;;;;;7.17;1.97;;;4.00;99.90;;;;;;5068760;28;20227;-81
2023/01/18 05:48:57;;;;;;;5.50;2.07;;;4.00;99.90;;;;;;5068998;28;20285;-81
2023/01/18 05:51:24;;;;;;;4.47;1.83;;;4.00;99.90;;;;;;5068381;28;20867;-81
2023/01/18 05:53:51;;;;;;;5.40;1.97;;;4.10;99.90;;;;;;5068783;28;20225;-81
2023/01/18 05:56:18;;;;;;;5.63;1.97;;;4.10;99.90;;;;;;5069227;28;20201;-82
2023/01/18 05:58:45;;;;;;;5.20;1.90;;;4.10;99.90;;;;;;5068870;28;20208;-82
2023/01/18 06:01:12;;;;;;;3.17;1.50;;;4.00;99.90;;;;;;5069524;28;20317;-82
2023/01/18 06:03:40;;;;;;;5.90;1.80;;;4.00;99.90;;;;;;5067784;28;20200;-81
2023/01/18 06:06:07;;;;;;;6.77;1.93;;;4.10;99.90;;;;;;5067211;28;20335;-80
2023/01/18 06:08:35;;;;;;;5.17;2.00;;;4.00;99.90;;;;;;5066670;28;20274;-81
2023/01/18 06:11:02;;;;;;;4.57;1.80;;;4.00;99.90;;;;;;5064693;28;20205;-80
2023/01/18 06:13:30;;;;;;;4.17;1.87;;;3.90;99.90;;;;;;5086514;28;20207;-81
2023/01/18 06:15:58;;;;;;;4.53;2.07;;;3.90;99.90;;;;;;5088337;28;20211;-82
2023/01/18 06:18:27;;;;;;;3.43;2.00;;;3.80;99.90;;;;;;5087828;28;20292;-81
2023/01/18 06:20:56;;;;;;;6.67;2.00;;;3.80;99.90;;;;;;5081739;28;20625;-81
2023/01/18 06:23:24;;;;;;;5.00;2.17;;;3.80;99.90;;;;;;5068070;28;20201;-79
2023/01/18 06:25:51;;;;;;;8.67;2.30;;;3.90;99.90;;;;;;5065171;28;20201;-78
2023/01/18 06:28:19;;;;;;;4.83;2.47;;;4.00;99.90;;;;;;5065434;28;20244;-77
2023/01/18 06:30:47;;;;;;;7.23;2.27;;;3.90;99.90;;;;;;5065548;28;20228;-81
2023/01/18 06:33:14;;;;;;;6.37;2.37;;;3.90;99.90;;;;;;5066537;28;20193;-79
2023/01/18 06:35:42;;;;;;;7.63;2.20;;;4.00;99.90;;;;;;5066681;28;20201;-84
2023/01/18 06:38:11;;;;;;;5.37;2.20;;;4.00;99.90;;;;;;5071799;28;20200;-81
2023/01/18 06:40:37;;;;;;;8.40;2.60;;;4.10;99.90;;;;;;5066580;28;20211;-79
2023/01/18 06:43:06;;;;;;;5.27;3.10;;;4.00;99.90;;;;;;5066974;28;20302;-81
2023/01/18 06:45:33;;;;;;;7.30;2.30;;;4.00;99.90;;;;;;5066488;28;20303;-82
2023/01/18 06:48:00;;;;;;;4.47;2.57;;;4.00;99.90;;;;;;5065242;28;20217;-80
2023/01/18 06:50:27;;;;;;;8.50;2.87;;;4.00;99.90;;;;;;5066795;28;20197;-78
2023/01/18 06:52:54;;;;;;;4.83;2.70;;;4.00;99.90;;;;;;5067281;28;20209;-81
2023/01/18 06:55:22;;;;;;;5.87;2.83;;;4.00;99.90;;;;;;5066625;28;20196;-82
2023/01/18 06:57:49;;;;;;;6.40;2.40;;;4.00;99.90;;;;;;5069998;28;20291;-82
2023/01/18 07:00:17;;;;;;;5.90;2.10;;;4.00;99.90;;;;;;5086496;28;20276;-81
2023/01/18 07:02:44;;;;;;;4.33;2.13;;;4.00;99.90;;;;;;5085999;28;20200;-82
2023/01/18 07:05:11;;;;;;;4.37;2.40;;;4.00;99.90;;;;;;5087371;28;20201;-82
2023/01/18 07:07:38;;;;;;;6.43;2.00;;;3.90;99.90;;;;;;5067486;28;20236;-81
2023/01/18 07:10:06;;;;;;;3.53;1.80;;;3.90;99.90;;;;;;5065535;28;20197;-80
2023/01/18 07:12:34;;;;;;;5.27;2.37;;;3.90;99.90;;;;;;5065423;28;20241;-81
2023/01/18 07:15:01;;;;;;;5.47;2.47;;;3.90;99.90;;;;;;5065404;28;20450;-81
2023/01/18 07:17:28;;;;;;;4.87;2.50;;;3.90;99.90;;;;;;5065300;28;20284;-82
2023/01/18 07:19:55;;;;;;;6.57;2.70;;;4.00;99.90;;;;;;5065803;28;20196;-82
2023/01/18 07:22:22;;;;;;;4.57;1.97;;;4.00;99.90;;;;;;5065637;28;20256;-79
2023/01/18 07:24:49;;;;;;;3.97;2.17;;;4.00;99.90;;;;;;5066584;28;20232;-81
2023/01/18 07:27:16;;;;;;;4.47;2.33;;;4.00;99.90;;;;;;5069531;28;20219;-81
2023/01/18 07:29:44;;;;;;;14.63;4.97;;;4.10;99.90;;;;;;5068792;28;20194;-81
2023/01/18 07:32:11;;;;;;;14.47;5.30;;;4.10;99.90;;;;;;5069214;28;20284;-81
2023/01/18 07:34:37;;;;;;;10.07;3.83;;;4.10;99.90;;;;;;5074280;22;20242;-81
2023/01/18 07:37:05;;;;;;;7.77;3.20;;;4.10;99.90;;;;;;5048943;28;20591;-80
2023/01/18 07:39:32;;;;;;;8.50;2.30;;;4.20;99.90;;;;;;5048246;28;20202;-79
2023/01/18 07:41:59;;;;;;;6.03;2.97;;;4.20;99.90;;;;;;5046028;28;20627;-82
2023/01/18 07:44:26;;;;;;;6.43;3.07;;;4.20;99.90;;;;;;5056448;28;20229;-80
2023/01/18 07:46:54;;;;;;;7.57;2.83;;;4.20;99.90;;;;;;5070377;28;20201;-81
2023/01/18 07:49:21;;;;;;;7.30;2.80;;;4.20;99.90;;;;;;5068540;28;20762;-80
2023/01/18 07:51:48;;;;;;;6.60;2.70;;;4.20;99.90;;;;;;5049372;28;20292;-82
2023/01/18 07:54:17;;;;;;;7.10;2.33;;;4.20;99.90;;;;;;5050281;28;20284;-78
2023/01/18 07:56:44;;;;;;;9.37;3.10;;;4.10;99.90;;;;;;5048331;28;20216;-82
2023/01/18 07:59:11;;;;;;;5.90;2.37;;;4.10;99.90;;;;;;5068319;28;20579;-82
2023/01/18 08:01:38;;;;;;;6.93;2.30;;;4.10;99.90;;;;;;5068565;28;20662;-83
2023/01/18 08:04:07;;;;;;;8.07;3.50;;;4.00;99.90;;;;;;5068143;28;20251;-79
2023/01/18 08:06:34;;;;;;;5.93;2.10;;;4.00;99.90;;;;;;5060129;28;20202;-80
2023/01/18 08:09:01;;;;;;;7.57;1.90;;;4.00;99.90;;;;;;5049559;28;20319;-80
2023/01/18 08:11:28;;;;;;;4.90;1.80;;;4.00;99.90;;;;;;5047987;28;20449;-79
2023/01/18 08:13:55;;;;;;;6.30;1.60;;;4.00;99.90;;;;;;5048989;28;20216;-80
2023/01/18 08:16:23;;;;;;;6.20;1.83;;;4.00;99.90;;;;;;5048096;28;20237;-81
2023/01/18 08:18:50;;;;;;;5.77;2.10;;;4.00;99.90;;;;;;5047635;28;20281;-82
2023/01/18 08:21:19;;;;;;;4.70;2.10;;;4.00;99.90;;;;;;5048189;28;20208;-80
2023/01/18 08:23:45;;;;;;;4.77;2.00;;;4.10;99.90;;;;;;5047934;28;20302;-83
2023/01/18 08:26:13;;;;;;;6.30;2.20;;;4.10;99.90;;;;;;5046493;28;20213;-80
2023/01/18 08:28:43;;;;;;;7.57;2.93;;;4.20;99.90;;;;;;5051764;28;20313;-83
2023/01/18 08:31:12;;;;;;;10.07;3.20;;;4.20;99.90;;;;;;5051878;28;20237;-83
2023/01/18 08:33:41;;;;;;;8.73;2.83;;;4.20;99.90;;;;;;5056669;28;20237;-81
2023/01/18 08:36:13;;;;;;;9.20;2.37;;;4.20;99.90;;;;;;5056217;28;20522;-80
2023/01/18 08:38:41;;;;;;;6.33;2.00;;;4.30;99.90;;;;;;5054585;28;20264;-83
2023/01/18 08:41:09;;;;;;;6.70;2.30;;;4.30;99.90;;;;;;5056211;28;20218;-79
2023/01/18 08:43:36;;;;;;;7.13;1.73;;;4.40;99.90;;;;;;5046807;28;20213;-79
2023/01/18 08:46:03;;;;;;;5.13;1.73;;;4.50;99.90;;;;;;5044130;28;20202;-81
2023/01/18 08:48:30;;;;;;;4.20;1.43;;;4.40;99.90;;;;;;5043229;28;20244;-78
2023/01/18 08:51:01;;;;;;;7.53;2.20;;;4.50;99.90;;;;;;5044862;28;20198;-79
2023/01/18 08:53:28;;;;;;;5.27;1.40;;;4.60;99.90;;;;;;5044175;28;20220;-79
2023/01/18 08:55:58;;;;;;;5.57;1.83;;;4.60;99.90;;;;;;5046781;28;20228;-80
2023/01/18 08:58:25;;;;;;;4.43;1.73;;;4.60;99.90;;;;;;5045031;28;20212;-79
2023/01/18 09:00:52;;;;;;;10.27;2.47;;;4.70;99.90;;;;;;5044096;28;20210;-79
2023/01/18 09:03:20;;;;;;;1.97;1.10;;;4.80;99.90;;;;;;5044261;28;20324;-78
2023/01/18 09:05:48;;;;;;;4.10;0.90;;;4.90;99.90;;;;;;5054265;28;20914;-78
2023/01/18 09:08:15;;;;;;;3.40;1.30;;;4.80;99.90;;;;;;5044436;28;20221;-78
2023/01/18 09:10:42;;;;;;;3.07;1.13;;;4.90;99.90;;;;;;5047371;28;20957;-83
2023/01/18 09:13:10;;;;;;;5.87;1.43;;;5.00;99.90;;;;;;5044927;28;20259;-79
2023/01/18 09:15:37;;;;;;;4.63;1.20;;;5.00;99.90;;;;;;5049769;28;20206;-83
2023/01/18 09:18:07;;;;;;;2.97;2.00;;;5.00;99.90;;;;;;5056679;28;20208;-82
2023/01/18 09:20:35;;;;;;;3.57;1.67;;;5.00;99.90;;;;;;5070159;28;20201;-83
2023/01/18 09:23:04;;;;;;;4.53;1.53;;;5.00;99.90;;;;;;5052278;28;20954;-87
2023/01/18 09:25:31;;;;;;;8.63;1.87;;;5.10;99.90;;;;;;5049509;28;20612;-80
2023/01/18 09:27:58;;;;;;;4.63;1.47;;;5.10;99.90;;;;;;5049557;28;20334;-86
2023/01/18 09:30:27;;;;;;;2.27;1.10;;;5.20;99.90;;;;;;5050227;28;20274;-84
2023/01/18 09:32:54;;;;;;;5.43;1.50;;;5.20;99.90;;;;;;5056318;28;20240;-79
2023/01/18 09:35:21;;;;;;;5.43;1.50;;;5.20;99.90;;;;;;5061804;28;20245;-80
2023/01/18 09:37:48;;;;;;;8.13;1.70;;;5.30;99.90;;;;;;5046368;28;20194;-81
2023/01/18 09:40:17;;;;;;;1.60;1.10;;;5.40;99.90;;;;;;5048540;28;20216;-83
2023/01/18 09:42:45;;;;;;;4.30;1.20;;;5.40;99.90;;;;;;5047002;28;20289;-82
2023/01/18 09:45:26;;;;;;;4.27;1.20;;;5.50;99.90;;;;;;5048453;28;20927;-81
2023/01/18 09:48:00;;;;;;;5.77;1.10;;;5.50;99.90;;;;;;5059870;28;20217;-81
2023/01/18 09:50:28;;;;;;;1.37;0.90;;;5.50;99.90;;;;;;5055060;28;20203;-81
2023/01/18 09:52:59;;;;;;;6.37;1.60;;;5.50;99.90;;;;;;5044749;28;20208;-81
2023/01/18 09:55:33;;;;;;;4.13;1.33;;;5.50;99.90;;;;;;5044666;28;20836;-79
2023/01/18 09:58:18;;;;;;;3.53;1.20;;;5.50;99.90;;;;;;5043789;28;20194;-78
2023/01/18 10:00:48;;;;;;;5.10;1.43;;;5.60;99.90;;;;;;5059970;28;20209;-80
2023/01/18 10:03:24;;;;;;;4.80;1.40;;;5.70;99.90;;;;;;5064188;28;20200;-80
2023/01/18 10:06:07;;;;;;;3.67;1.77;;;5.80;99.90;;;;;;5063733;28;20318;-81
2023/01/18 10:08:36;;;;;;;4.63;1.33;;;5.90;99.90;;;;;;5054929;28;20226;-79
2023/01/18 10:11:10;;;;;;;5.47;1.47;;;6.00;99.90;;;;;;5042925;28;20301;-81
2023/01/18 10:13:47;;;;;;;4.30;1.40;;;6.00;99.90;;;;;;5044136;28;20262;-81
2023/01/18 10:16:15;;;;;;;5.07;1.80;;;6.00;99.90;;;;;;5043208;28;20240;-81
2023/01/18 10:18:46;;;;;;;6.00;2.13;;;6.10;99.90;;;;;;5044375;28;20252;-82
2023/01/18 10:21:23;;;;;;;6.73;2.37;;;6.10;99.90;;;;;;5043162;28;20198;-80
2023/01/18 10:24:05;;;;;;;11.80;2.20;;;6.10;99.90;;;;;;5045739;28;20197;-81
2023/01/18 10:26:35;;;;;;;10.40;2.80;;;6.10;99.90;;;;;;5045075;28;20229;-81
2023/01/18 10:29:11;;;;;;;21.37;2.53;;;6.20;99.90;;;;;;5045014;28;20232;-81
2023/01/18 10:31:47;;;;;;;7.00;1.50;;;6.30;99.90;;;;;;5044041;28;20288;-80
2023/01/18 10:34:18;;;;;;;4.40;1.73;;;6.30;99.90;;;;;;5044738;28;20735;-80
2023/01/18 10:36:48;;;;;;;3.00;1.37;;;6.30;99.90;;;;;;5044957;28;20206;-82
2023/01/18 10:39:27;;;;;;;9.97;1.87;;;6.50;99.90;;;;;;5044521;28;20872;-80
2023/01/18 10:41:56;;;;;;;8.63;1.87;;;6.40;99.90;;;;;;5044216;28;20216;-82
2023/01/18 10:44:23;;;;;;;12.90;2.00;;;6.50;99.90;;;;;;5044292;28;20209;-81
2023/01/18 10:46:56;;;;;;;7.23;2.30;;;6.40;99.90;;;;;;5041304;28;20225;-81
2023/01/18 10:49:36;;;;;;;5.97;1.90;;;6.50;99.90;;;;;;5047014;28;20218;-83
2023/01/18 10:52:24;;;;;;;9.20;1.57;;;6.50;99.90;;;;;;5047235;28;20744;-83
2023/01/18 10:54:54;;;;;;;5.50;1.50;;;6.50;99.90;;;;;;5046673;28;20209;-82
2023/01/18 10:57:26;;;;;;;4.73;1.83;;;6.50;99.90;;;;;;5047239;28;20201;-81
2023/01/18 10:59:53;;;;;;;9.17;2.23;;;6.60;99.90;;;;;;5048934;28;20276;-80
2023/01/18 11:02:26;;;;;;;4.37;1.50;;;6.60;99.90;;;;;;5051140;28;20212;-83
2023/01/18 11:05:19;;;;;;;2.97;1.33;;;6.50;99.90;;;;;;5051204;28;20213;-82
2023/01/18 11:07:46;;;;;;;5.03;1.57;;;6.60;99.90;;;;;;5050387;28;20206;-82
2023/01/18 11:10:24;;;;;;;4.33;1.47;;;6.60;99.90;;;;;;5050633;28;20201;-79
2023/01/18 11:12:53;;;;;;;4.23;1.40;;;6.60;99.90;;;;;;5050569;28;20466;-83
2023/01/18 11:15:28;;;;;;;7.50;2.03;;;6.60;99.90;;;;;;5063508;28;20258;-82
2023/01/18 11:18:16;;;;;;;6.87;1.67;;;6.70;99.90;;;;;;5071806;28;20209;-82
2023/01/18 11:20:48;;;;;;;6.17;1.80;;;6.70;99.90;;;;;;5067143;28;20208;-80
2023/01/18 11:23:22;;;;;;;7.73;2.17;;;6.70;99.90;;;;;;5066788;28;20218;-81
2023/01/18 11:25:55;;;;;;;5.63;1.60;;;6.70;99.90;;;;;;5050633;28;20882;-82
2023/01/18 11:28:26;;;;;;;9.07;2.60;;;6.70;99.90;;;;;;5050095;28;20525;-82
2023/01/18 11:30:56;;;;;;;7.30;2.60;;;6.60;99.90;;;;;;5048906;28;20187;-82
2023/01/18 11:33:25;;;;;;;5.57;2.30;;;6.60;99.90;;;;;;5050426;28;20301;-80
2023/01/18 11:35:59;;;;;;;5.17;2.00;;;6.60;99.90;;;;;;5049871;28;20193;-80
2023/01/18 11:38:31;;;;;;;8.53;2.47;;;6.60;99.90;;;;;;5050719;28;20202;-80
2023/01/18 11:41:14;;;;;;;11.23;2.73;;;6.60;99.90;;;;;;5050653;28;20198;-81
2023/01/18 11:43:50;;;;;;;8.63;2.50;;;6.60;99.90;;;;;;5063165;28;20262;-80
2023/01/18 11:46:31;;;;;;;8.93;3.13;;;6.50;99.90;;;;;;5070495;28;20193;-81
2023/01/18 11:49:04;;;;;;;8.17;2.60;;;6.50;99.90;;;;;;5049769;28;20508;-82
2023/01/18 11:51:37;;;;;;;7.40;1.93;;;6.50;99.90;;;;;;5059765;28;20606;-82
2023/01/18 11:54:14;;;;;;;6.13;1.90;;;6.50;99.90;;;;;;5055097;28;20205;-81
2023/01/18 11:56:47;;;;;;;5.90;1.50;;;6.60;99.90;;;;;;5068547;28;20670;-81
2023/01/18 11:59:19;;;;;;;10.40;1.60;;;6.70;99.90;;;;;;5055658;28;20320;-82
2023/01/18 12:02:15;;;;;;;6.03;1.83;;;6.80;99.90;;;;;;5050181;28;20186;-79
2023/01/18 12:05:02;;;;;;;4.90;1.57;;;6.90;99.90;;;;;;5042984;28;20288;-82
2023/01/18 12:07:43;;;;;;;5.40;1.40;;;7.10;99.90;;;;;;5058167;28;20232;-83
2023/01/18 12:10:15;;;;;;;6.17;2.10;;;7.10;99.90;;;;;;5048122;28;20210;-83
2023/01/18 12:12:57;;;;;;;4.37;1.60;;;7.20;99.90;;;;;;5048401;28;20282;-81
2023/01/18 12:15:50;;;;;;;8.17;1.90;;;7.20;99.90;;;;;;5050359;28;20202;-84
2023/01/18 12:18:37;;;;;;;10.57;1.67;;;7.20;99.90;;;;;;5064408;28;20675;-79
2023/01/18 12:21:10;;;;;;;4.77;1.97;;;7.10;99.90;;;;;;5055451;28;20212;-81
2023/01/18 12:24:15;;;;;;;7.27;2.10;;;7.10;99.90;;;;;;5051315;28;20271;-83
2023/01/18 12:26:51;;;;;;;6.57;1.70;;;7.00;99.90;;;;;;5061221;28;20225;-85
2023/01/18 12:29:44;;;;;;;9.20;1.87;;;7.00;99.90;;;;;;5050557;28;20221;-83
2023/01/18 12:32:25;;;;;;;4.73;1.20;;;6.90;99.90;;;;;;5049502;28;20649;-82
2023/01/18 12:35:09;;;;;;;3.23;1.20;;;6.90;99.90;;;;;;5066883;28;20232;-84
2023/01/18 12:37:45;;;;;;;4.17;1.60;;;6.90;99.90;;;;;;5070052;28;20203;-84
2023/01/18 12:40:34;;;;;;;7.10;2.33;;;6.90;99.90;;;;;;5067039;28;20198;-83
2023/01/18 12:43:11;;;;;;;4.93;1.30;;;6.80;99.90;;;;;;5047835;28;20557;-83
2023/01/18 12:45:41;;;;;;;6.53;1.57;;;6.80;99.90;;;;;;5047342;28;20604;-82
2023/01/18 12:48:16;;;;;;;3.93;1.57;;;6.80;99.90;;;;;;5048094;28;20229;-81
2023/01/18 12:50:45;;;;;;;7.17;2.13;;;6.70;99.90;;;;;;5047163;28;20205;-83
2023/01/18 12:53:18;;;;;;;4.83;1.40;;;6.70;99.90;;;;;;5048174;28;20194;-82
2023/01/18 12:55:52;;;;;;;3.63;1.40;;;6.70;99.90;;;;;;5049761;28;20291;-81
2023/01/18 12:58:23;;;;;;;7.93;1.90;;;6.60;99.90;;;;;;5049805;28;20204;-84
2023/01/18 13:00:54;;;;;;;5.43;1.67;;;6.70;99.90;;;;;;5049614;28;20302;-85
2023/01/18 13:03:24;;;;;;;6.07;1.70;;;6.70;99.90;;;;;;5046974;28;20229;-83
2023/01/18 13:05:56;;;;;;;8.20;2.17;;;6.70;99.90;;;;;;5050012;28;20356;-86
2023/01/18 13:08:34;;;;;;;12.70;2.87;;;6.70;99.90;;;;;;5063765;28;20237;-84
2023/01/18 13:11:08;;;;;;;12.23;2.30;;;6.70;99.90;;;;;;5064388;28;20201;-84
2023/01/18 13:13:37;;;;;;;9.93;1.97;;;6.60;99.90;;;;;;5064640;28;20486;-84
2023/01/18 13:16:14;;;;;;;7.57;1.73;;;6.60;99.90;;;;;;5068007;28;20209;-84
2023/01/18 13:18:49;;;;;;;5.53;1.63;;;6.60;99.90;;;;;;5068579;28;20202;-82
2023/01/18 13:21:26;;;;;;;7.90;1.70;;;6.60;99.90;;;;;;5068916;28;20249;-84
2023/01/18 13:24:03;;;;;;;6.60;1.60;;;6.60;99.90;;;;;;5068702;28;20201;-85
2023/01/18 13:26:34;;;;;;;6.03;1.60;;;6.60;99.90;;;;;;5069225;28;20320;-83
2023/01/18 13:29:12;;;;;;;4.47;1.70;;;6.50;99.90;;;;;;5053006;28;20229;-84
2023/01/18 13:31:39;;;;;;;4.80;1.60;;;6.60;99.90;;;;;;5047804;28;20206;-83
2023/01/18 13:34:28;;;;;;;5.20;1.30;;;6.60;99.90;;;;;;5048473;28;20352;-85
2023/01/18 13:36:56;;;;;;;6.13;1.53;;;6.60;99.90;;;;;;5047992;28;20202;-81
2023/01/18 13:39:24;;;;;;;5.13;1.33;;;6.60;99.90;;;;;;5047687;28;20204;-84
2023/01/18 13:42:25;;;;;;;7.13;1.90;;;6.70;99.90;;;;;;5046440;28;20634;-84
2023/01/18 13:45:16;;;;;;;5.40;2.03;;;6.70;99.90;;;;;;5052581;28;20304;-80
2023/01/18 13:47:49;;;;;;;8.73;2.30;;;6.60;99.90;;;;;;5045362;28;20200;-82
2023/01/18 13:50:39;;;;;;;6.10;2.23;;;6.60;99.90;;;;;;5043672;28;20228;-82
2023/01/18 13:53:23;;;;;;;8.97;2.63;;;6.60;99.90;;;;;;5044595;28;20275;-81